Time;durP1;ratioP1;P1;durP2;ratioP2;P2;SDS_P1;SDS_P2;PMS_P1;PMS_P2;Temp;Humidity;BMP_temperature;BMP_pressure;BME280_temperature;BME280_humidity;BME280_pressure;Samples;Min_cycle;Max_cycle;Signal;HPM_P1;HPM_P2
2022/11/30 00:02:20;;;;;;;4.80;1.92;;;;;;;3.40;75.38;93976.22;5087496;28;20036;-77
2022/11/30 00:04:46;;;;;;;2.53;2.33;;;;;;;3.66;74.76;93979.59;5087951;28;20897;-77
2022/11/30 00:07:11;;;;;;;3.28;2.17;;;;;;;3.80;74.16;93967.47;5083175;28;20622;-77
2022/11/30 00:09:36;;;;;;;3.47;2.25;;;;;;;3.80;73.40;93953.53;5088677;28;20050;-78
2022/11/30 00:12:05;;;;;;;2.67;2.28;;;;;;;4.04;72.61;93980.03;5085883;28;20106;-78
2022/11/30 00:14:31;;;;;;;3.25;2.55;;;;;;;4.10;71.87;93982.41;5087367;28;20040;-77
2022/11/30 00:16:56;;;;;;;2.33;2.00;;;;;;;4.03;71.87;93987.16;5080183;28;20094;-78
2022/11/30 00:19:21;;;;;;;2.80;2.15;;;;;;;3.69;72.34;93963.28;5091558;28;20024;-77
2022/11/30 00:21:48;;;;;;;3.55;2.40;;;;;;;4.04;72.31;93985.31;5088610;28;20036;-78
2022/11/30 00:24:13;;;;;;;4.20;2.35;;;;;;;3.96;71.90;93993.75;5086678;28;20028;-78
2022/11/30 00:26:39;;;;;;;3.33;2.03;;;;;;;3.89;71.90;93988.75;5089069;28;20106;-78
2022/11/30 00:29:05;;;;;;;3.53;2.08;;;;;;;3.78;72.50;93984.56;5087139;28;20036;-78
2022/11/30 00:31:30;;;;;;;2.28;2.08;;;;;;;4.02;71.98;93993.47;5086100;28;20020;-78
2022/11/30 00:33:55;;;;;;;3.75;2.53;;;;;;;4.03;71.77;93995.03;5086244;28;20052;-78
2022/11/30 00:36:22;;;;;;;4.05;2.40;;;;;;;4.06;71.51;93983.97;5089692;28;20218;-77
2022/11/30 00:38:49;;;;;;;2.88;2.13;;;;;;;3.98;71.40;93963.47;5096863;28;20089;-78
2022/11/30 00:41:16;;;;;;;3.92;2.10;;;;;;;4.19;71.18;93996.56;5092085;28;20044;-77
2022/11/30 00:43:41;;;;;;;3.85;2.10;;;;;;;4.20;70.90;93965.78;5093080;28;20043;-77
2022/11/30 00:46:08;;;;;;;3.78;2.85;;;;;;;4.22;70.65;93988.13;5092318;28;20024;-78
2022/11/30 00:48:35;;;;;;;7.00;3.38;;;;;;;4.36;70.46;93972.56;5090665;28;20698;-77
2022/11/30 00:51:01;;;;;;;2.50;2.28;;;;;;;4.04;71.06;93972.94;5093023;28;20033;-77
2022/11/30 00:53:26;;;;;;;4.13;3.03;;;;;;;3.92;71.28;93951.38;5093238;28;20569;-78
2022/11/30 00:55:52;;;;;;;5.63;2.90;;;;;;;4.24;71.27;93979.97;5092340;28;20032;-77
2022/11/30 00:58:18;;;;;;;5.50;3.25;;;;;;;3.99;71.42;93978.22;5091592;28;20040;-77
2022/11/30 01:00:44;;;;;;;3.70;3.08;;;;;;;4.21;71.42;93981.28;5091876;28;20071;-78
2022/11/30 01:03:10;;;;;;;4.47;2.92;;;;;;;4.16;71.12;93973.41;5091191;28;21600;-77
2022/11/30 01:05:37;;;;;;;3.25;2.58;;;;;;;4.15;71.20;93969.22;5097701;28;20615;-78
2022/11/30 01:08:04;;;;;;;3.10;1.90;;;;;;;4.30;71.14;93967.63;5091204;28;20061;-78
2022/11/30 01:10:30;;;;;;;3.55;2.42;;;;;;;4.21;70.94;93967.34;5090993;28;20125;-76
2022/11/30 01:12:55;;;;;;;9.52;4.50;;;;;;;4.27;71.06;93984.69;5091303;28;20029;-77
2022/11/30 01:15:21;;;;;;;6.13;3.85;;;;;;;4.51;70.48;93969.06;5090345;28;20044;-76
2022/11/30 01:17:47;;;;;;;3.58;2.28;;;;;;;4.25;70.49;93940.22;5090278;28;20505;-77
2022/11/30 01:20:13;;;;;;;7.20;1.75;;;;;;;4.36;70.33;93979.69;5091659;28;20059;-78
2022/11/30 01:22:38;;;;;;;2.13;1.73;;;;;;;4.17;70.82;93967.09;5090717;28;20043;-79
2022/11/30 01:25:04;;;;;;;2.58;1.88;;;;;;;4.20;70.76;93969.19;5091290;28;20008;-77
2022/11/30 01:27:29;;;;;;;3.38;2.60;;;;;;;4.45;70.60;93970.97;5088923;28;20114;-78
2022/11/30 01:29:55;;;;;;;2.75;2.15;;;;;;;4.49;70.08;93976.47;5088327;28;20035;-77
2022/11/30 01:32:21;;;;;;;3.53;2.63;;;;;;;4.47;69.97;93971.47;5091425;28;20028;-75
2022/11/30 01:34:46;;;;;;;3.47;1.92;;;;;;;4.16;70.41;93947.09;5089279;28;20051;-77
2022/11/30 01:37:12;;;;;;;2.10;1.92;;;;;;;4.23;70.18;93963.38;5095450;28;20024;-76
2022/11/30 01:39:37;;;;;;;2.88;1.73;;;;;;;4.32;70.04;93955.75;5092245;28;20071;-78
2022/11/30 01:42:02;;;;;;;2.38;1.92;;;;;;;4.47;69.66;93978.59;5090232;28;20071;-79
2022/11/30 01:44:28;;;;;;;2.40;1.95;;;;;;;4.46;69.44;93975.16;5087621;28;20036;-76
2022/11/30 01:46:56;;;;;;;2.08;1.88;;;;;;;4.48;69.23;93980.97;5089393;28;20624;-77
2022/11/30 01:49:28;;;;;;;2.00;1.52;;;;;;;4.20;69.86;93979.72;5091978;28;20016;-77
2022/11/30 01:51:59;;;;;;;2.40;1.90;;;;;;;4.39;70.06;93976.53;5089050;28;20056;-77
2022/11/30 01:54:37;;;;;;;1.80;1.50;;;;;;;4.53;69.39;93972.25;5093126;28;20039;-78
2022/11/30 01:57:13;;;;;;;2.20;1.70;;;;;;;4.42;69.43;93970.72;5089887;28;20041;-79
2022/11/30 01:59:39;;;;;;;1.92;1.52;;;;;;;4.28;69.86;93966.00;5090616;28;20048;-78
2022/11/30 02:02:05;;;;;;;2.00;1.67;;;;;;;4.38;69.58;93964.41;5088613;28;20035;-78
2022/11/30 02:04:35;;;;;;;2.78;1.38;;;;;;;4.17;69.65;93958.41;5092171;28;20024;-77
2022/11/30 02:07:07;;;;;;;1.45;1.35;;;;;;;4.22;69.96;93967.06;5090110;28;20406;-78
2022/11/30 02:09:40;;;;;;;1.52;1.40;;;;;;;4.12;69.78;93942.63;5087280;28;20635;-76
2022/11/30 02:12:12;;;;;;;1.88;1.52;;;;;;;3.90;70.54;93937.72;5090149;28;20028;-78
2022/11/30 02:14:44;;;;;;;3.33;1.70;;;;;;;3.90;70.88;93942.19;5084789;28;20036;-77
2022/11/30 02:17:45;;;;;;;6.32;2.50;;;;;;;3.76;71.33;93936.72;5089387;28;20036;-78
2022/11/30 02:20:11;;;;;;;4.18;1.90;;;;;;;3.69;71.85;93949.34;5094838;28;20043;-77
2022/11/30 02:22:52;;;;;;;1.80;1.60;;;;;;;3.54;72.75;93949.38;5087526;28;20025;-77
2022/11/30 02:25:42;;;;;;;4.75;2.83;;;;;;;3.38;73.21;93945.97;5092739;28;20024;-78
2022/11/30 02:28:19;;;;;;;3.60;2.08;;;;;;;3.12;74.41;93953.09;5088662;28;20044;-77
2022/11/30 02:30:49;;;;;;;1.50;1.30;;;;;;;2.92;74.75;93930.22;5089623;28;20084;-78
2022/11/30 02:33:22;;;;;;;1.73;1.63;;;;;;;2.95;75.32;93947.28;5094096;28;20092;-77
2022/11/30 02:35:52;;;;;;;1.95;1.80;;;;;;;3.04;75.60;93950.97;5101446;28;20048;-77
2022/11/30 02:38:22;;;;;;;3.08;2.05;;;;;;;3.04;75.77;93945.72;5092275;28;20036;-77
2022/11/30 02:40:48;;;;;;;1.83;1.65;;;;;;;2.55;76.75;93918.38;5090324;28;20023;-77
2022/11/30 02:43:15;;;;;;;2.22;2.03;;;;;;;2.48;77.30;93918.59;5086685;28;20028;-78
2022/11/30 02:45:54;;;;;;;2.08;1.67;;;;;;;2.33;78.42;93935.13;5087059;28;20059;-76
2022/11/30 02:48:31;;;;;;;2.38;2.13;;;;;;;2.38;78.71;93921.22;5086874;28;20028;-76
2022/11/30 02:51:01;;;;;;;1.90;1.80;;;;;;;2.37;79.04;93932.75;5091183;28;20033;-76
2022/11/30 02:53:27;;;;;;;3.08;2.67;;;;;;;2.16;79.87;93923.25;5084353;28;20028;-78
2022/11/30 02:55:53;;;;;;;2.58;2.38;;;;;;;2.39;79.81;93949.03;5089801;28;20487;-77
2022/11/30 02:58:20;;;;;;;3.15;2.08;;;;;;;2.19;79.90;93922.72;5088730;28;20009;-76
2022/11/30 03:00:46;;;;;;;3.20;2.47;;;;;;;2.39;80.18;93944.59;5086071;28;20032;-77
2022/11/30 03:03:11;;;;;;;3.63;2.63;;;;;;;2.27;80.39;93944.00;5089041;28;20066;-77
2022/11/30 03:05:37;;;;;;;4.88;2.17;;;;;;;2.35;80.30;93951.38;5094557;28;20028;-78
2022/11/30 03:08:02;;;;;;;3.10;2.30;;;;;;;2.34;80.58;93941.94;5090887;28;20059;-76
2022/11/30 03:10:28;;;;;;;2.63;2.15;;;;;;;2.13;80.98;93939.50;5092078;28;20067;-78
2022/11/30 03:12:57;;;;;;;3.13;2.38;;;;;;;2.16;81.17;93933.75;5084947;28;20032;-77
2022/11/30 03:15:23;;;;;;;1.90;1.80;;;;;;;2.17;80.85;93930.84;5088793;28;20032;-76
2022/11/30 03:17:49;;;;;;;6.18;2.67;;;;;;;2.19;81.11;93933.22;5089705;28;20046;-77
2022/11/30 03:20:15;;;;;;;3.55;1.92;;;;;;;1.96;81.20;93913.50;5087651;28;20101;-78
2022/11/30 03:22:40;;;;;;;1.88;1.77;;;;;;;2.25;81.31;93948.75;5088365;28;20005;-75
2022/11/30 03:25:06;;;;;;;1.98;1.65;;;;;;;2.12;81.53;93940.53;5089923;28;20083;-77
2022/11/30 03:27:31;;;;;;;2.40;2.20;;;;;;;2.21;81.31;93931.13;5089226;28;20044;-77
2022/11/30 03:29:57;;;;;;;5.80;1.83;;;;;;;2.22;81.65;93944.00;5085269;28;20028;-77
2022/11/30 03:32:22;;;;;;;2.22;1.98;;;;;;;1.96;81.73;93903.00;5086517;28;20043;-77
2022/11/30 03:34:47;;;;;;;1.80;1.55;;;;;;;2.25;81.50;93950.56;5083007;28;20020;-76
2022/11/30 03:37:13;;;;;;;2.28;1.75;;;;;;;2.00;81.44;93909.28;5091548;28;20070;-76
2022/11/30 03:39:38;;;;;;;3.40;1.90;;;;;;;2.26;81.60;93949.50;5095388;28;20039;-76
2022/11/30 03:42:04;;;;;;;2.25;1.67;;;;;;;2.16;81.60;93918.78;5090059;28;20102;-76
2022/11/30 03:44:29;;;;;;;1.60;1.50;;;;;;;2.24;81.64;93951.63;5090526;28;20047;-77
2022/11/30 03:46:54;;;;;;;1.60;1.50;;;;;;;2.06;82.12;93939.72;5090007;28;20062;-76
2022/11/30 03:49:21;;;;;;;2.13;1.75;;;;;;;2.01;82.53;93950.22;5088522;28;20008;-76
2022/11/30 03:51:47;;;;;;;1.55;1.45;;;;;;;1.87;83.07;93951.72;5087691;28;20019;-77
2022/11/30 03:54:13;;;;;;;2.50;1.80;;;;;;;1.77;83.53;93946.38;5088672;28;20032;-77
2022/11/30 03:56:39;;;;;;;1.42;1.33;;;;;;;1.65;83.80;93934.28;5090299;28;20031;-76
2022/11/30 03:59:04;;;;;;;7.07;1.70;;;;;;;1.61;84.13;93937.69;5089257;28;20037;-76
2022/11/30 04:01:30;;;;;;;1.77;1.67;;;;;;;1.55;84.54;93938.69;5086321;28;20174;-75
2022/11/30 04:03:56;;;;;;;1.52;1.42;;;;;;;1.46;84.88;93925.28;5087813;28;20047;-77
2022/11/30 04:06:22;;;;;;;1.77;1.65;;;;;;;1.59;84.84;93956.28;5088211;28;20036;-78
2022/11/30 04:08:48;;;;;;;1.80;1.70;;;;;;;1.62;84.96;93960.19;5090500;28;20936;-76
2022/11/30 04:11:14;;;;;;;1.50;1.40;;;;;;;1.46;85.08;93929.72;5087726;28;20058;-77
2022/11/30 04:13:41;;;;;;;1.50;1.40;;;;;;;1.59;85.00;93966.75;5085452;28;20043;-77
2022/11/30 04:16:07;;;;;;;1.95;1.38;;;;;;;1.54;85.23;93955.44;5088677;28;20043;-78
2022/11/30 04:18:36;;;;;;;1.70;1.50;;;;;;;1.53;85.13;93946.78;5085939;28;20047;-76
2022/11/30 04:21:02;;;;;;;1.50;1.30;;;;;;;1.66;84.52;93940.31;5088783;28;20043;-78
2022/11/30 04:23:35;;;;;;;1.63;1.52;;;;;;;1.79;84.64;93970.53;5089186;28;20047;-78
2022/11/30 04:26:05;;;;;;;2.30;1.92;;;;;;;1.75;84.42;93959.78;5087999;28;20055;-78
2022/11/30 04:28:34;;;;;;;3.30;1.70;;;;;;;1.83;84.46;93966.34;5088106;28;20675;-77
2022/11/30 04:31:01;;;;;;;4.32;1.90;;;;;;;1.91;83.93;93953.56;5089508;28;20028;-77
2022/11/30 04:33:27;;;;;;;3.17;2.05;;;;;;;2.13;83.56;93971.00;5089811;28;20024;-78
2022/11/30 04:35:57;;;;;;;1.77;1.67;;;;;;;1.93;83.51;93945.44;5093888;28;20147;-77
2022/11/30 04:38:24;;;;;;;3.08;1.33;;;;;;;1.80;83.39;93909.97;5089675;28;20091;-78
2022/11/30 04:40:50;;;;;;;2.25;1.67;;;;;;;2.23;82.90;93963.16;5089947;28;20028;-77
2022/11/30 04:43:15;;;;;;;1.95;1.33;;;;;;;2.05;82.80;93933.72;5088520;28;20072;-76
2022/11/30 04:45:43;;;;;;;1.45;1.35;;;;;;;2.30;82.49;93956.63;5087242;28;20058;-77
2022/11/30 04:48:08;;;;;;;1.60;1.50;;;;;;;2.43;82.28;93953.50;5091746;28;20036;-75
2022/11/30 04:50:34;;;;;;;1.70;1.60;;;;;;;2.58;81.78;93967.72;5095789;28;20096;-78
2022/11/30 04:53:00;;;;;;;1.63;1.50;;;;;;;2.64;81.50;93972.75;5084131;28;20043;-79
2022/11/30 04:55:25;;;;;;;1.42;1.33;;;;;;;2.60;81.29;93970.91;5100891;28;20085;-78
2022/11/30 04:57:51;;;;;;;2.10;1.90;;;;;;;2.65;81.01;93978.75;5089297;28;20043;-77
2022/11/30 05:00:21;;;;;;;1.95;1.65;;;;;;;2.45;80.89;93956.66;5084459;28;20087;-78
2022/11/30 05:02:46;;;;;;;2.08;1.58;;;;;;;2.60;80.95;93965.66;5065523;28;20071;-77
2022/11/30 05:05:15;;;;;;;3.35;1.88;;;;;;;2.33;80.92;93943.00;5082612;28;20040;-76
2022/11/30 05:07:40;;;;;;;2.70;1.80;;;;;;;2.34;81.37;93962.94;5088627;28;20039;-77
2022/11/30 05:10:10;;;;;;;3.92;2.75;;;;;;;2.36;81.29;93955.59;5086034;28;20024;-78
2022/11/30 05:12:38;;;;;;;4.53;1.80;;;;;;;2.47;81.44;93970.31;5085463;28;20063;-78
2022/11/30 05:15:04;;;;;;;1.70;1.60;;;;;;;2.45;81.39;93982.91;5087813;28;20150;-77
2022/11/30 05:17:29;;;;;;;3.25;1.83;;;;;;;2.38;81.54;93985.00;5086728;28;20077;-78
2022/11/30 05:19:55;;;;;;;2.13;1.80;;;;;;;2.42;81.53;93988.69;5086166;28;20050;-77
2022/11/30 05:22:23;;;;;;;2.15;1.70;;;;;;;2.25;81.91;93982.88;5092856;28;20025;-79
2022/11/30 05:24:49;;;;;;;2.30;2.00;;;;;;;2.15;82.39;93982.81;5092481;28;20032;-78
2022/11/30 05:27:14;;;;;;;2.63;1.63;;;;;;;2.13;82.75;93981.47;5089973;28;20042;-78
2022/11/30 05:29:40;;;;;;;6.65;2.42;;;;;;;2.00;82.69;93946.03;5090805;28;20036;-77
2022/11/30 05:32:05;;;;;;;2.42;2.17;;;;;;;2.17;82.64;93980.72;5091616;28;20043;-78
2022/11/30 05:34:31;;;;;;;4.10;2.33;;;;;;;2.22;82.79;93985.97;5108372;28;20058;-77
2022/11/30 05:36:56;;;;;;;2.13;1.80;;;;;;;2.20;82.79;93987.28;5106810;28;20060;-77
2022/11/30 05:39:23;;;;;;;3.05;2.60;;;;;;;2.01;82.71;93961.47;5082570;28;20040;-77
2022/11/30 05:41:48;;;;;;;2.63;2.42;;;;;;;2.13;82.89;93987.53;5091190;28;20039;-79
2022/11/30 05:44:14;;;;;;;4.80;2.60;;;;;;;1.97;82.75;93954.38;5088859;28;20540;-78
2022/11/30 05:46:39;;;;;;;5.30;2.15;;;;;;;2.02;83.16;93994.56;5077276;28;20024;-77
2022/11/30 05:49:23;;;;;;;3.97;2.55;;;;;;;2.12;83.15;93987.75;5099858;28;20036;-77
2022/11/30 05:51:48;;;;;;;2.40;2.03;;;;;;;1.97;83.53;93993.72;5090012;28;20037;-76
2022/11/30 05:54:14;;;;;;;4.50;2.60;;;;;;;1.89;83.58;93987.16;5090429;28;20043;-78
2022/11/30 05:56:40;;;;;;;4.47;2.58;;;;;;;1.79;83.63;93970.53;5092999;28;20028;-78
2022/11/30 05:59:06;;;;;;;8.18;3.00;;;;;;;1.93;83.73;93997.91;5092550;28;20080;-77
2022/11/30 06:01:33;;;;;;;4.38;3.00;;;;;;;1.96;83.79;94002.66;5090492;28;20489;-78
2022/11/30 06:03:59;;;;;;;7.43;4.43;;;;;;;1.94;83.97;93999.50;5096051;28;20045;-76
2022/11/30 06:06:25;;;;;;;3.70;2.70;;;;;;;1.61;84.26;93977.78;5091398;28;20562;-78
2022/11/30 06:08:50;;;;;;;4.53;3.08;;;;;;;1.77;84.30;93993.59;5087735;28;20132;-77
2022/11/30 06:11:17;;;;;;;5.25;2.38;;;;;;;1.91;84.11;94011.28;5085055;28;20055;-77
2022/11/30 06:13:42;;;;;;;4.07;2.22;;;;;;;1.75;84.58;94019.28;5084467;28;20031;-77
2022/11/30 06:16:10;;;;;;;3.10;2.47;;;;;;;1.62;84.85;94008.19;5091668;28;20028;-77
2022/11/30 06:18:37;;;;;;;3.05;2.33;;;;;;;1.45;84.99;93991.84;5095626;28;20505;-77
2022/11/30 06:21:05;;;;;;;3.33;2.08;;;;;;;1.67;85.09;94029.19;5096210;28;20043;-77
2022/11/30 06:23:33;;;;;;;2.38;2.17;;;;;;;1.48;85.31;94007.03;5083114;28;20048;-77
2022/11/30 06:26:10;;;;;;;5.63;2.72;;;;;;;1.61;85.19;94026.81;5078776;28;20052;-78
2022/11/30 06:28:36;;;;;;;2.40;1.88;;;;;;;1.64;85.18;94024.47;5092503;28;20574;-78
2022/11/30 06:31:04;;;;;;;2.47;2.28;;;;;;;1.68;85.19;94030.78;5092257;28;20054;-77
2022/11/30 06:33:29;;;;;;;2.35;2.15;;;;;;;1.57;84.77;93995.03;5093371;28;20039;-77
2022/11/30 06:35:55;;;;;;;2.55;2.17;;;;;;;1.84;84.76;94020.38;5090103;28;20044;-78
2022/11/30 06:38:21;;;;;;;2.30;2.10;;;;;;;1.85;84.38;94019.34;5092099;28;20039;-76
2022/11/30 06:40:47;;;;;;;1.95;1.75;;;;;;;1.94;84.28;94025.72;5078225;28;20098;-78
2022/11/30 06:43:13;;;;;;;2.58;2.00;;;;;;;1.95;84.06;94028.09;5092260;28;20063;-77
2022/11/30 06:45:51;;;;;;;2.03;1.80;;;;;;;2.11;84.04;94031.56;5078712;28;20063;-78
2022/11/30 06:48:39;;;;;;;2.28;1.77;;;;;;;2.05;83.73;94032.63;5083944;28;20047;-77
2022/11/30 06:56:10;;;;;;;2.30;2.10;;;;;;;1.16;83.87;93909.34;4955755;28;20054;-75
2022/11/30 06:58:36;;;;;;;6.30;4.05;;;;;;;1.89;83.99;94012.59;4931147;28;20507;-77
2022/11/30 07:02:00;;;;;;;;;;;;;;;;;;;;;
2022/11/30 07:04:50;;;;;;;2.08;1.98;;;;;;;1.95;84.03;94016.81;4913401;28;20151;-75
2022/11/30 07:07:40;;;;;;;5.82;1.90;;;;;;;1.91;84.11;94008.66;4966935;28;20030;-73
2022/11/30 07:10:53;;;;;;;2.88;2.58;;;;;;;1.89;84.38;94018.63;4966483;28;20770;-74
2022/11/30 07:13:52;;;;;;;2.67;2.08;;;;;;;1.94;84.29;94023.91;4940413;28;20152;-75
2022/11/30 07:16:37;;;;;;;3.80;1.83;;;;;;;1.74;84.52;94017.72;4968568;28;20489;-74
2022/11/30 07:19:36;;;;;;;;;;;;;;;;;;;;;
2022/11/30 07:22:53;;;;;;;2.60;2.35;;;;;;;1.72;85.35;94019.81;4954634;28;20505;-74
2022/11/30 07:26:09;;;;;;;3.33;1.83;;;;;;;1.55;85.57;94022.56;4944437;28;20053;-73
2022/11/30 07:29:25;;;;;;;2.92;2.53;;;;;;;1.47;85.83;94020.41;4970466;28;20632;-75
2022/11/30 07:32:02;;;;;;;;;;;;;;;1.46;86.06;94030.09;4993743;28;20073;-74
2022/11/30 07:34:45;;;;;;;2.63;2.08;;;;;;;1.31;86.70;94031.81;4988603;28;19917;-74
2022/11/30 07:37:54;;;;;;;2.88;2.03;;;;;;;1.43;86.60;94030.59;4997191;28;20084;-75
2022/11/30 07:41:02;;;;;;;2.03;1.80;;;;;;;1.45;86.49;94033.78;4982072;28;20186;-75
2022/11/30 07:44:12;;;;;;;6.13;2.17;;;;;;;1.55;86.36;94028.59;4987854;28;20084;-74
2022/11/30 07:51:10;;;;;;;2.08;1.88;;;;;;;1.61;86.13;94027.59;4963959;28;20042;-76
2022/11/30 07:53:58;;;;;;;2.47;2.17;;;;;;;1.65;85.68;94022.63;4988657;28;20624;-77
2022/11/30 08:01:59;;;;;;;2.10;1.73;;;;;;;1.59;85.60;94029.66;5002505;28;20632;-75
2022/11/30 08:04:24;;;;;;;5.05;2.95;;;;;;;1.54;85.85;94016.53;5007882;28;20040;-75
2022/11/30 08:06:52;;;;;;;4.93;2.58;;;;;;;1.48;86.21;94022.78;5023339;28;20028;-76
2022/11/30 08:09:17;;;;;;;2.90;2.00;;;;;;;1.47;86.11;94023.81;5022434;28;20040;-76
2022/11/30 08:11:43;;;;;;;6.43;1.92;;;;;;;1.43;86.11;94024.56;5021827;28;20134;-76
2022/11/30 08:14:12;;;;;;;3.15;2.17;;;;;;;1.36;86.37;94019.53;5023346;28;20038;-76
2022/11/30 08:16:38;;;;;;;3.70;1.60;;;;;;;1.07;86.63;93981.59;5022042;28;20682;-75
2022/11/30 08:19:03;;;;;;;4.68;2.92;;;;;;;1.21;86.75;93995.84;5018444;28;20109;-76
2022/11/30 08:21:31;;;;;;;5.72;2.10;;;;;;;1.36;86.82;94024.78;5017061;28;20045;-76
2022/11/30 08:23:56;;;;;;;3.42;2.15;;;;;;;1.21;86.97;93995.84;4999828;28;20490;-77
2022/11/30 08:26:24;;;;;;;2.55;2.35;;;;;;;1.33;87.05;94009.53;5020360;28;20052;-75
2022/11/30 08:28:50;;;;;;;2.85;2.53;;;;;;;1.42;87.11;94023.78;5019327;28;20033;-76
2022/11/30 08:31:19;;;;;;;2.38;2.00;;;;;;;1.41;87.09;94016.97;5014161;28;20128;-76
2022/11/30 08:33:45;;;;;;;6.38;2.53;;;;;;;1.42;87.12;94023.00;5003044;28;20033;-76
2022/11/30 08:36:19;;;;;;;3.58;2.42;;;;;;;1.52;86.80;94031.72;5017563;28;20657;-76
2022/11/30 08:38:45;;;;;;;10.35;2.92;;;;;;;1.51;86.83;94031.97;5008832;28;20040;-76
2022/11/30 08:41:13;;;;;;;3.25;2.28;;;;;;;1.47;86.61;94031.66;5013228;28;20063;-75
2022/11/30 08:43:38;;;;;;;3.25;2.95;;;;;;;1.36;86.53;93992.53;5016987;28;20524;-76
2022/11/30 08:46:06;;;;;;;2.92;2.28;;;;;;;1.36;86.62;93997.78;5019031;28;20538;-76
2022/11/30 08:48:33;;;;;;;4.28;2.63;;;;;;;1.40;86.23;94004.91;5021134;28;20033;-76
2022/11/30 08:51:03;;;;;;;6.78;2.40;;;;;;;1.21;86.18;93974.88;5019060;28;20045;-76
2022/11/30 08:53:29;;;;;;;3.03;2.65;;;;;;;1.52;86.27;94034.31;5022387;28;20049;-75
2022/11/30 08:55:56;;;;;;;3.83;2.00;;;;;;;1.29;86.62;94007.69;5020671;28;20997;-75
2022/11/30 08:58:22;;;;;;;3.20;2.55;;;;;;;1.45;86.75;94028.53;5024510;28;20033;-76
2022/11/30 09:00:47;;;;;;;12.48;2.80;;;;;;;1.37;86.67;94030.81;5011157;28;20045;-75
2022/11/30 09:03:12;;;;;;;2.55;2.25;;;;;;;1.09;86.91;94008.31;5024907;28;20317;-76
2022/11/30 09:05:38;;;;;;;4.00;2.80;;;;;;;1.25;87.33;94041.47;5018244;28;20537;-76
2022/11/30 09:08:03;;;;;;;4.78;3.15;;;;;;;1.13;87.67;94018.03;5019781;28;20056;-76
2022/11/30 09:10:28;;;;;;;8.10;3.78;;;;;;;0.90;87.71;93973.03;5018007;28;20095;-76
2022/11/30 09:12:54;;;;;;;3.80;3.08;;;;;;;1.37;87.80;94039.47;5021760;28;20859;-75
2022/11/30 09:15:20;;;;;;;7.82;3.85;;;;;;;1.40;87.71;94033.72;5021805;28;20025;-76
2022/11/30 09:17:46;;;;;;;3.70;2.60;;;;;;;1.28;87.76;94009.50;5021460;28;20488;-76
2022/11/30 09:20:11;;;;;;;3.75;2.47;;;;;;;1.42;87.78;94017.75;5026597;28;20549;-76
2022/11/30 09:22:37;;;;;;;6.72;2.25;;;;;;;1.46;87.59;94029.31;5017776;28;20604;-76
2022/11/30 09:25:02;;;;;;;2.25;1.83;;;;;;;1.46;87.69;94040.59;5005293;28;20031;-76
2022/11/30 09:27:31;;;;;;;3.10;2.15;;;;;;;1.55;87.61;94044.34;5025071;28;20504;-75
2022/11/30 09:29:57;;;;;;;2.40;2.17;;;;;;;1.55;87.56;94033.84;5031847;28;20040;-77
2022/11/30 09:32:22;;;;;;;4.35;2.17;;;;;;;1.58;87.49;94041.19;5026759;28;20598;-75
2022/11/30 09:34:47;;;;;;;4.35;2.70;;;;;;;1.47;87.28;94025.66;5023432;28;20057;-75
2022/11/30 09:37:13;;;;;;;4.35;2.47;;;;;;;1.47;86.93;94015.94;5027572;28;20064;-75
2022/11/30 09:39:38;;;;;;;4.53;2.97;;;;;;;1.79;86.81;94052.63;5015922;28;20107;-76
2022/11/30 09:42:07;;;;;;;9.60;3.78;;;;;;;1.94;86.52;94058.00;5019557;28;20037;-76
2022/11/30 09:44:54;;;;;;;5.15;2.67;;;;;;;2.02;86.42;94061.97;5020650;28;20505;-75
2022/11/30 09:47:43;;;;;;;3.45;2.72;;;;;;;2.07;85.92;94062.78;5020683;28;20549;-76
2022/11/30 09:50:17;;;;;;;5.75;2.40;;;;;;;2.04;85.63;94054.66;5024627;28;20438;-76
2022/11/30 09:52:50;;;;;;;2.50;1.88;;;;;;;2.14;85.63;94057.31;5021112;28;20037;-77
2022/11/30 09:55:25;;;;;;;4.47;2.35;;;;;;;2.16;85.41;94062.34;5015664;28;20991;-76
2022/11/30 09:57:53;;;;;;;2.50;2.30;;;;;;;2.21;85.43;94047.38;5021482;28;20218;-76
2022/11/30 10:00:22;;;;;;;2.38;1.75;;;;;;;2.15;85.15;94037.91;5000456;28;20049;-76
2022/11/30 10:02:50;;;;;;;4.40;2.58;;;;;;;2.15;85.42;94043.16;5000376;28;20038;-75
2022/11/30 10:05:20;;;;;;;4.68;2.22;;;;;;;2.06;85.61;94036.81;4982071;28;20973;-76
2022/11/30 10:07:59;;;;;;;4.03;2.03;;;;;;;1.96;85.95;94034.16;4985616;28;20432;-76
2022/11/30 10:10:33;;;;;;;3.38;2.28;;;;;;;2.00;86.15;94036.00;4987714;28;20760;-75
2022/11/30 10:13:28;;;;;;;4.65;2.38;;;;;;;1.77;86.28;94014.56;4978866;28;20033;-76
2022/11/30 10:15:57;;;;;;;2.88;2.17;;;;;;;1.86;86.78;94032.22;5014476;28;20017;-75
2022/11/30 10:18:36;;;;;;;3.40;2.70;;;;;;;1.59;86.99;94000.03;4997266;28;20144;-76
2022/11/30 10:21:32;;;;;;;4.30;2.80;;;;;;;1.89;87.34;94020.44;5003205;28;20050;-76
2022/11/30 10:24:14;;;;;;;2.80;2.35;;;;;;;1.94;87.46;94023.09;4998329;28;20045;-75
2022/11/30 10:26:53;;;;;;;3.63;2.63;;;;;;;1.96;87.48;94010.53;4988186;28;20029;-76
2022/11/30 10:29:19;;;;;;;5.18;3.17;;;;;;;1.98;87.52;94018.94;4997182;28;20257;-76
2022/11/30 10:31:52;;;;;;;5.22;2.72;;;;;;;1.98;87.39;94008.44;4999605;28;20049;-76
2022/11/30 10:34:41;;;;;;;6.80;2.92;;;;;;;2.03;87.57;94011.09;4985133;28;20500;-76
2022/11/30 10:37:07;;;;;;;6.05;3.13;;;;;;;2.02;87.08;94012.13;5004589;28;20041;-76
2022/11/30 10:39:40;;;;;;;5.45;3.10;;;;;;;1.79;87.27;93978.41;5002388;28;20025;-75
2022/11/30 10:42:21;;;;;;;4.53;2.47;;;;;;;1.83;87.44;93982.09;4999745;28;20050;-75
2022/11/30 10:45:16;;;;;;;4.72;2.90;;;;;;;1.89;87.89;94002.09;4982125;28;20461;-76
2022/11/30 10:48:25;;;;;;;4.40;3.20;;;;;;;1.86;87.98;93997.34;4975056;28;20468;-76
2022/11/30 10:50:52;;;;;;;2.80;2.60;;;;;;;1.89;88.03;93996.84;4984025;28;20033;-76
2022/11/30 10:53:17;;;;;;;3.80;3.05;;;;;;;1.91;87.96;93989.53;4981050;28;20145;-76
2022/11/30 10:55:51;;;;;;;4.20;2.53;;;;;;;1.89;88.30;93991.59;4980070;28;20451;-76
2022/11/30 10:58:22;;;;;;;4.82;2.92;;;;;;;1.97;88.00;93998.97;4995294;28;20137;-77
2022/11/30 11:01:12;;;;;;;3.42;2.60;;;;;;;1.82;88.08;93981.28;5007902;28;20520;-77
2022/11/30 11:03:37;;;;;;;2.58;2.38;;;;;;;1.74;88.39;93984.41;5007798;28;20042;-77
2022/11/30 11:06:22;;;;;;;4.00;2.42;;;;;;;1.79;88.90;93978.41;5020092;28;20045;-76
2022/11/30 11:08:48;;;;;;;4.25;2.47;;;;;;;1.92;88.82;93985.84;5033281;28;20041;-77
2022/11/30 11:11:34;;;;;;;5.53;2.80;;;;;;;1.89;88.02;93991.59;5019375;28;20033;-76
2022/11/30 11:14:21;;;;;;;2.70;2.50;;;;;;;1.82;88.24;93981.28;5016477;28;20595;-77
2022/11/30 11:16:57;;;;;;;4.07;2.65;;;;;;;1.75;88.37;93986.00;5019721;28;20138;-76
2022/11/30 11:19:31;;;;;;;4.90;3.03;;;;;;;1.79;88.65;93981.03;5014324;28;20396;-76
2022/11/30 11:21:57;;;;;;;7.55;3.15;;;;;;;1.75;88.60;93972.09;5025757;28;20097;-76
2022/11/30 11:24:26;;;;;;;3.78;2.60;;;;;;;1.80;89.04;93982.59;5016916;28;20036;-76
2022/11/30 11:26:53;;;;;;;6.78;3.17;;;;;;;1.82;88.80;93985.75;5017976;28;20372;-76
2022/11/30 11:29:32;;;;;;;4.05;3.08;;;;;;;1.80;88.59;93977.38;5018529;28;20567;-76
2022/11/30 11:32:30;;;;;;;6.45;3.85;;;;;;;1.77;88.86;93973.41;5019712;28;20534;-77
2022/11/30 11:34:56;;;;;;;8.68;3.03;;;;;;;1.82;88.63;93972.63;4999791;28;20118;-77
2022/11/30 11:37:32;;;;;;;4.95;3.63;;;;;;;1.85;88.58;93969.53;5019338;28;20029;-77
2022/11/30 11:39:59;;;;;;;5.25;3.17;;;;;;;1.95;88.29;93985.34;5015743;28;20627;-74
2022/11/30 11:42:26;;;;;;;6.65;4.13;;;;;;;1.91;88.30;93981.66;5018449;28;20455;-76
2022/11/30 11:44:55;;;;;;;4.63;3.50;;;;;;;1.94;88.35;93978.50;5015903;28;20029;-76
2022/11/30 11:48:00;;;;;;;6.53;4.38;;;;;;;1.96;88.05;93976.44;5019422;28;20040;-77
2022/11/30 11:50:31;;;;;;;4.25;2.78;;;;;;;1.85;88.54;93980.00;5004592;28;20380;-76
2022/11/30 11:53:06;;;;;;;5.57;2.80;;;;;;;1.73;88.73;93977.56;5018021;28;20373;-76
2022/11/30 11:55:33;;;;;;;9.18;3.38;;;;;;;1.74;89.15;93973.13;5018961;28;20040;-76
2022/11/30 11:58:02;;;;;;;4.28;2.85;;;;;;;1.75;89.14;93988.63;5017641;28;20368;-76
2022/11/30 12:00:28;;;;;;;6.13;2.97;;;;;;;1.80;88.95;93990.47;5020962;28;20308;-76
2022/11/30 12:03:18;;;;;;;6.22;3.30;;;;;;;1.77;88.71;93988.34;5020005;28;20382;-77
2022/11/30 12:05:50;;;;;;;9.25;3.92;;;;;;;1.78;88.79;93984.69;5003924;28;20410;-76
2022/11/30 12:08:27;;;;;;;26.92;4.65;;;;;;;1.88;88.54;93995.25;5020052;28;20041;-77
2022/11/30 12:11:22;;;;;;;6.68;3.50;;;;;;;1.90;88.44;94004.47;4997880;28;20041;-77
2022/11/30 12:13:49;;;;;;;4.40;3.03;;;;;;;1.86;88.31;93998.13;5017331;28;20045;-76
2022/11/30 12:16:43;;;;;;;5.28;3.83;;;;;;;1.95;88.27;94001.09;5018886;28;20037;-77
2022/11/30 12:19:14;;;;;;;5.60;3.38;;;;;;;1.98;88.11;94000.56;4998788;28;20049;-76